createdAt,value
2019-06-01T00:01:54.176Z,7.20
2019-06-01T00:04:27.172Z,7.30
2019-06-01T00:06:58.851Z,6.93
2019-06-01T00:09:30.323Z,7.13
2019-06-01T00:12:01.820Z,7.23
2019-06-01T00:14:33.128Z,6.40
2019-06-01T00:17:05.018Z,6.77
2019-06-01T00:19:36.377Z,7.13
2019-06-01T00:22:07.841Z,6.80
2019-06-01T00:24:39.469Z,7.03
2019-06-01T00:27:11.062Z,7.10
2019-06-01T00:29:42.763Z,6.93
2019-06-01T00:32:14.224Z,6.80
2019-06-01T00:34:45.822Z,6.97
2019-06-01T00:37:18.437Z,7.33
2019-06-01T00:39:49.998Z,6.77
2019-06-01T00:42:22.527Z,7.27
2019-06-01T00:44:53.934Z,6.73
2019-06-01T00:47:25.508Z,7.20
2019-06-01T00:49:56.763Z,6.70
2019-06-01T00:52:28.433Z,7.70
2019-06-01T00:54:59.782Z,6.73
2019-06-01T00:57:31.002Z,7.13
2019-06-01T01:00:04.350Z,7.20
2019-06-01T01:02:37.211Z,7.67
2019-06-01T01:05:10.155Z,7.37
2019-06-01T01:07:41.997Z,7.13
2019-06-01T01:10:13.475Z,7.17
2019-06-01T01:13:05.221Z,7.80
2019-06-01T01:15:37.207Z,7.87
2019-06-01T01:18:08.839Z,8.17
2019-06-01T01:20:40.334Z,7.73
2019-06-01T01:23:11.718Z,8.33
2019-06-01T01:25:43.785Z,8.07
2019-06-01T01:28:14.994Z,8.30
2019-06-01T01:31:01.549Z,8.07
2019-06-01T01:33:19.716Z,8.83
2019-06-01T01:35:52.560Z,8.80
2019-06-01T01:38:24.774Z,8.40
2019-06-01T01:40:56.267Z,9.10
2019-06-01T01:43:28.105Z,8.97
2019-06-01T01:45:59.960Z,8.73
2019-06-01T01:48:31.545Z,9.03
2019-06-01T01:51:03.181Z,8.47
2019-06-01T01:53:34.715Z,9.03
2019-06-01T01:56:05.966Z,9.43
2019-06-01T01:58:37.577Z,8.07
2019-06-01T02:01:21.346Z,8.70
2019-06-01T02:03:42.188Z,8.13
2019-06-01T02:06:14.527Z,9.00
2019-06-01T02:08:45.782Z,14.07
2019-06-01T02:11:17.525Z,8.97
2019-06-01T02:13:49.015Z,8.83
2019-06-01T02:16:20.477Z,8.90
2019-06-01T02:18:53.861Z,8.67
2019-06-01T02:21:25.108Z,9.07
2019-06-01T02:23:56.993Z,9.33
2019-06-01T02:26:28.578Z,9.00
2019-06-01T02:29:02.010Z,9.67
2019-06-01T02:31:41.544Z,9.27
2019-06-01T02:34:06.590Z,9.60
2019-06-01T02:36:38.133Z,9.70
2019-06-01T02:39:11.727Z,9.77
2019-06-01T02:41:43.265Z,9.57
2019-06-01T02:44:15.046Z,9.80
2019-06-01T02:46:46.459Z,9.37
2019-06-01T02:49:18.354Z,9.07
2019-06-01T02:51:49.871Z,8.97
2019-06-01T02:54:21.213Z,8.70
2019-06-01T02:56:52.677Z,8.80
2019-06-01T02:59:24.203Z,9.23
2019-06-01T03:02:00.220Z,8.67
2019-06-01T03:04:30.011Z,9.57
2019-06-01T03:07:03.765Z,9.00
2019-06-01T03:09:38.572Z,9.00
2019-06-01T03:12:11.366Z,9.50
2019-06-01T03:14:44.151Z,11.03
2019-06-01T03:17:16.397Z,11.03
2019-06-01T03:19:49.070Z,11.53
2019-06-01T03:22:22.309Z,13.50
2019-06-01T03:24:54.137Z,12.60
2019-06-01T03:27:28.649Z,12.63
2019-06-01T03:30:03.932Z,11.93
2019-06-01T03:32:37.337Z,11.30
2019-06-01T03:35:10.857Z,11.80
2019-06-01T03:37:42.313Z,11.37
2019-06-01T03:40:23.153Z,11.57
2019-06-01T03:42:47.092Z,11.77
2019-06-01T03:45:18.652Z,11.57
2019-06-01T03:47:50.007Z,11.33
2019-06-01T03:50:21.392Z,11.93
2019-06-01T03:52:52.923Z,11.03
2019-06-01T03:55:24.479Z,10.33
2019-06-01T03:57:55.968Z,11.03
2019-06-01T04:00:27.404Z,10.50
2019-06-01T04:02:58.927Z,10.77
2019-06-01T04:05:30.447Z,11.17
2019-06-01T04:08:01.825Z,11.10
2019-06-01T04:10:33.161Z,10.67
2019-06-01T04:13:05.629Z,11.07
2019-06-01T04:15:37.589Z,10.27
2019-06-01T04:18:10.185Z,10.93
2019-06-01T04:20:42.028Z,10.37
2019-06-01T04:23:14.624Z,10.60
2019-06-01T04:25:46.031Z,10.53
2019-06-01T04:28:17.445Z,11.33
2019-06-01T04:30:48.914Z,11.37
2019-06-01T04:33:21.276Z,10.97
2019-06-01T04:35:52.789Z,10.70
2019-06-01T04:38:24.239Z,10.43
2019-06-01T04:40:55.571Z,10.77
2019-06-01T04:43:26.891Z,10.63
2019-06-01T04:45:58.502Z,10.23
2019-06-01T04:48:30.195Z,10.77
2019-06-01T04:51:01.552Z,10.90
2019-06-01T04:53:33.055Z,10.77
2019-06-01T04:56:04.841Z,11.13
2019-06-01T04:58:36.430Z,10.07
2019-06-01T05:01:08.868Z,10.63
2019-06-01T05:03:40.502Z,10.37
2019-06-01T05:06:13.311Z,9.57
2019-06-01T05:08:44.826Z,11.00
2019-06-01T05:11:16.057Z,10.40
2019-06-01T05:13:47.522Z,11.30
2019-06-01T05:16:19.169Z,9.57
2019-06-01T05:18:50.467Z,9.60
2019-06-01T05:21:22.875Z,9.57
2019-06-01T05:23:54.522Z,8.87
2019-06-01T05:26:26.054Z,9.23
2019-06-01T05:28:57.671Z,9.83
2019-06-01T05:31:29.478Z,9.23
2019-06-01T05:34:00.971Z,9.27
2019-06-01T05:36:32.566Z,8.33
2019-06-01T05:39:06.302Z,8.40
2019-06-01T05:41:37.768Z,7.33
2019-06-01T05:44:09.171Z,7.03
2019-06-01T05:46:40.760Z,7.50
2019-06-01T05:49:13.198Z,7.77
2019-06-01T05:51:46.631Z,7.30
2019-06-01T05:54:18.894Z,7.40
2019-06-01T05:56:50.417Z,7.17
2019-06-01T05:59:22.323Z,7.53
2019-06-01T06:01:53.919Z,7.53
2019-06-01T06:04:25.706Z,7.20
2019-06-01T06:06:57.116Z,6.87
2019-06-01T06:09:28.563Z,5.87
2019-06-01T06:11:59.924Z,5.53
2019-06-01T06:14:34.213Z,6.23
2019-06-01T06:17:06.633Z,6.17
2019-06-01T06:19:38.228Z,5.20
2019-06-01T06:22:09.571Z,5.60
2019-06-01T06:24:40.929Z,4.97
2019-06-01T06:27:12.440Z,5.10
2019-06-01T06:29:44.736Z,3.90
2019-06-01T06:32:19.169Z,4.13
2019-06-01T06:34:50.595Z,4.30
2019-06-01T06:37:22.056Z,3.87
2019-06-01T06:39:57.641Z,3.50
2019-06-01T06:42:29.228Z,4.03
2019-06-01T06:45:03.586Z,4.20
2019-06-01T06:47:34.924Z,4.50
2019-06-01T06:50:06.994Z,4.70
2019-06-01T06:52:38.372Z,4.60
2019-06-01T06:55:10.195Z,4.73
2019-06-01T06:57:41.492Z,4.90
2019-06-01T07:00:13.051Z,4.33
2019-06-01T07:02:44.539Z,3.80
2019-06-01T07:05:17.141Z,3.43
2019-06-01T07:07:48.986Z,3.90
2019-06-01T07:10:20.612Z,3.57
2019-06-01T07:12:52.129Z,3.73
2019-06-01T07:15:24.031Z,4.03
2019-06-01T07:17:55.360Z,5.10
2019-06-01T07:20:27.808Z,3.73
2019-06-01T07:22:59.581Z,3.70
2019-06-01T07:25:30.997Z,3.73
2019-06-01T07:28:03.157Z,3.67
2019-06-01T07:30:49.867Z,4.00
2019-06-01T07:33:08.313Z,3.60
2019-06-01T07:35:40.227Z,3.60
2019-06-01T07:38:11.634Z,3.87
2019-06-01T07:40:43.113Z,3.27
2019-06-01T07:43:14.602Z,3.57
2019-06-01T07:45:45.894Z,3.60
2019-06-01T07:48:17.482Z,3.10
2019-06-01T07:50:49.051Z,3.13
2019-06-01T07:53:20.959Z,3.23
2019-06-01T07:55:52.351Z,2.90
2019-06-01T07:58:24.658Z,3.00
2019-06-01T08:00:56.059Z,2.80
2019-06-01T08:03:30.871Z,3.10
2019-06-01T08:06:00.682Z,3.30
2019-06-01T08:08:32.780Z,2.90
2019-06-01T08:11:04.241Z,2.83
2019-06-01T08:13:35.979Z,2.43
2019-06-01T08:16:07.688Z,3.27
2019-06-01T08:18:39.571Z,3.20
2019-06-01T08:21:11.158Z,3.37
2019-06-01T08:23:43.761Z,2.67
2019-06-01T08:26:15.071Z,2.97
2019-06-01T08:28:46.452Z,2.43
2019-06-01T08:31:18.396Z,2.50
2019-06-01T08:33:49.745Z,2.93
2019-06-01T08:36:21.084Z,2.33
2019-06-01T08:38:52.708Z,2.70
2019-06-01T08:41:25.513Z,2.30
2019-06-01T08:43:56.943Z,2.80
2019-06-01T08:46:29.589Z,2.10
2019-06-01T08:49:00.944Z,2.40
2019-06-01T08:51:32.176Z,2.50
2019-06-01T08:54:03.605Z,2.20
2019-06-01T08:56:35.133Z,2.50
2019-06-01T08:59:07.510Z,2.40
2019-06-01T09:01:39.049Z,2.37
2019-06-01T09:04:10.434Z,2.53
2019-06-01T09:06:41.988Z,2.23
2019-06-01T09:09:13.348Z,2.10
2019-06-01T09:11:44.987Z,2.00
2019-06-01T09:14:16.496Z,2.43
2019-06-01T09:16:47.832Z,2.40
2019-06-01T09:19:19.430Z,2.60
2019-06-01T09:21:51.142Z,2.30
2019-06-01T09:24:22.518Z,2.47
2019-06-01T09:26:54.005Z,2.10
2019-06-01T09:29:25.811Z,2.30
2019-06-01T09:31:57.243Z,2.20
2019-06-01T09:34:28.621Z,2.47
2019-06-01T09:37:00.304Z,2.77
2019-06-01T09:39:33.072Z,2.50
2019-06-01T09:42:04.685Z,2.40
2019-06-01T09:44:37.241Z,2.40
2019-06-01T09:47:08.752Z,3.13
2019-06-01T09:49:40.390Z,2.47
2019-06-01T09:52:12.598Z,2.43
2019-06-01T09:54:44.489Z,2.20
2019-06-01T09:57:15.975Z,2.40
2019-06-01T09:59:47.356Z,2.70
2019-06-01T10:02:18.747Z,2.40
2019-06-01T10:04:50.157Z,2.67
2019-06-01T10:07:21.486Z,2.67
2019-06-01T10:09:53.587Z,2.67
2019-06-01T10:12:24.857Z,2.80
2019-06-01T10:14:56.431Z,2.77
2019-06-01T10:17:27.781Z,2.50
2019-06-01T10:19:59.093Z,2.47
2019-06-01T10:22:30.975Z,2.60
2019-06-01T10:25:05.815Z,2.40
2019-06-01T10:27:38.528Z,2.60
2019-06-01T10:30:11.632Z,2.52
2019-06-01T10:32:42.979Z,2.58
2019-06-01T10:35:14.562Z,2.57
2019-06-01T10:37:45.967Z,2.50
2019-06-01T10:40:17.358Z,2.33
2019-06-01T10:42:48.974Z,2.17
2019-06-01T10:45:20.263Z,2.27
2019-06-01T10:47:51.653Z,2.35
2019-06-01T10:50:24.094Z,2.25
2019-06-01T10:52:55.399Z,2.40
2019-06-01T10:55:26.884Z,2.53
2019-06-01T10:57:58.112Z,2.45
2019-06-01T11:00:39.832Z,2.50
2019-06-01T11:03:02.784Z,2.50
2019-06-01T11:05:34.989Z,2.70
2019-06-01T11:08:06.595Z,3.10
2019-06-01T11:10:38.921Z,2.67
2019-06-01T11:13:10.352Z,2.23
2019-06-01T11:15:44.706Z,2.50
2019-06-01T11:18:16.032Z,2.10
2019-06-01T11:20:47.264Z,2.20
2019-06-01T11:23:18.477Z,2.50
2019-06-01T11:25:49.839Z,2.37
2019-06-01T11:28:21.153Z,2.33
2019-06-01T11:30:52.636Z,2.60
2019-06-01T11:33:23.936Z,2.90
2019-06-01T11:35:56.481Z,2.40
2019-06-01T11:38:27.679Z,3.03
2019-06-01T11:40:59.042Z,2.33
2019-06-01T11:43:30.402Z,2.30
2019-06-01T11:46:01.844Z,2.07
2019-06-01T11:48:34.988Z,2.00
2019-06-01T11:51:06.662Z,3.13
2019-06-01T11:53:39.972Z,2.43
2019-06-01T11:56:11.623Z,1.93
2019-06-01T11:58:43.395Z,1.73
2019-06-01T12:01:15.425Z,1.80
2019-06-01T12:03:47.368Z,2.00
2019-06-01T12:06:18.770Z,1.70
2019-06-01T12:08:50.243Z,1.53
2019-06-01T12:11:21.586Z,1.63
2019-06-01T12:13:52.942Z,1.90
2019-06-01T12:16:24.412Z,1.40
2019-06-01T12:18:55.704Z,1.30
2019-06-01T12:21:31.552Z,1.10
2019-06-01T12:24:03.426Z,1.27
2019-06-01T12:26:37.133Z,1.30
2019-06-01T12:29:09.172Z,1.20
2019-06-01T12:31:41.643Z,1.30
2019-06-01T12:34:13.461Z,1.10
2019-06-01T12:36:46.285Z,1.50
2019-06-01T12:39:17.959Z,1.30
2019-06-01T12:41:49.607Z,1.22
2019-06-01T12:44:25.889Z,1.60
2019-06-01T12:46:58.331Z,1.60
2019-06-01T12:49:30.139Z,2.10
2019-06-01T12:52:02.128Z,1.40
2019-06-01T12:54:34.028Z,2.00
2019-06-01T12:57:05.235Z,1.43
2019-06-01T12:59:36.458Z,1.60
2019-06-01T13:02:08.494Z,1.57
2019-06-01T13:04:40.617Z,1.27
2019-06-01T13:07:11.955Z,1.70
2019-06-01T13:09:43.992Z,18.57
2019-06-01T13:12:15.691Z,1.63
2019-06-01T13:14:47.285Z,1.67
2019-06-01T13:17:19.597Z,2.22
2019-06-01T13:19:51.571Z,1.43
2019-06-01T13:22:23.242Z,1.75
2019-06-01T13:24:56.229Z,1.77
2019-06-01T13:27:27.575Z,1.67
2019-06-01T13:29:58.914Z,1.80
2019-06-01T13:32:30.556Z,1.90
2019-06-01T13:35:05.106Z,1.70
2019-06-01T13:37:36.774Z,6.20
2019-06-01T13:40:08.570Z,1.77
2019-06-01T13:42:40.070Z,1.57
2019-06-01T13:45:12.058Z,2.00
2019-06-01T13:47:43.489Z,1.77
2019-06-01T13:50:15.137Z,1.90
2019-06-01T13:52:46.390Z,1.60
2019-06-01T13:55:17.603Z,1.90
2019-06-01T13:57:48.820Z,1.80
2019-06-01T14:00:29.833Z,1.70
2019-06-01T14:02:55.874Z,1.70
2019-06-01T14:05:27.340Z,2.10
2019-06-01T14:07:58.860Z,2.10
2019-06-01T14:10:30.365Z,1.83
2019-06-01T14:13:05.158Z,1.80
2019-06-01T14:15:35.574Z,1.90
2019-06-01T14:18:07.026Z,1.90
2019-06-01T14:20:38.349Z,1.70
2019-06-01T14:23:10.312Z,2.10
2019-06-01T14:25:42.007Z,2.70
2019-06-01T14:28:13.563Z,1.80
2019-06-01T14:30:46.120Z,1.93
2019-06-01T14:33:17.811Z,2.80
2019-06-01T14:35:50.174Z,1.50
2019-06-01T14:38:21.877Z,1.70
2019-06-01T14:40:53.689Z,1.90
2019-06-01T14:43:25.035Z,2.03
2019-06-01T14:45:56.466Z,1.80
2019-06-01T14:48:27.893Z,1.60
2019-06-01T14:50:59.478Z,1.80
2019-06-01T14:53:31.621Z,1.97
2019-06-01T14:56:04.528Z,1.90
2019-06-01T14:58:35.856Z,1.90
2019-06-01T15:01:07.162Z,2.10
2019-06-01T15:03:38.782Z,2.10
2019-06-01T15:06:10.430Z,1.70
2019-06-01T15:08:41.759Z,1.80
2019-06-01T15:11:13.237Z,1.70
2019-06-01T15:13:44.900Z,2.33
2019-06-01T15:16:16.449Z,3.80
2019-06-01T15:18:47.813Z,1.67
2019-06-01T15:21:19.089Z,1.50
2019-06-01T15:23:51.858Z,2.10
2019-06-01T15:26:23.476Z,3.00
2019-06-01T15:28:54.791Z,7.53
2019-06-01T15:31:26.443Z,1.80
2019-06-01T15:33:57.971Z,3.10
2019-06-01T15:36:30.156Z,1.47
2019-06-01T15:39:03.232Z,1.10
2019-06-01T15:41:35.566Z,1.13
2019-06-01T15:44:07.143Z,1.60
2019-06-01T15:46:38.477Z,2.93
2019-06-01T15:49:09.832Z,3.60
2019-06-01T15:51:41.195Z,2.07
2019-06-01T15:54:12.394Z,1.47
2019-06-01T15:56:43.860Z,1.50
2019-06-01T15:59:15.193Z,1.30
2019-06-01T16:01:46.470Z,1.30
2019-06-01T16:04:18.024Z,1.70
2019-06-01T16:06:49.383Z,1.70
2019-06-01T16:09:20.842Z,1.70
2019-06-01T16:11:53.375Z,1.40
2019-06-01T16:14:24.909Z,1.63
2019-06-01T16:16:56.274Z,2.00
2019-06-01T16:19:29.280Z,2.20
2019-06-01T16:22:00.694Z,2.40
2019-06-01T16:24:31.971Z,2.73
2019-06-01T16:27:04.698Z,1.90
2019-06-01T16:29:36.414Z,2.20
2019-06-01T16:32:07.911Z,2.33
2019-06-01T16:34:39.349Z,3.73
2019-06-01T16:37:10.972Z,2.63
2019-06-01T16:39:57.934Z,2.20
2019-06-01T16:42:15.807Z,2.13
2019-06-01T16:44:47.117Z,2.67
2019-06-01T16:47:18.484Z,2.20
2019-06-01T16:49:49.662Z,1.90
2019-06-01T16:52:21.142Z,2.20
2019-06-01T16:54:52.527Z,2.00
2019-06-01T16:57:24.269Z,3.30
2019-06-01T16:59:56.346Z,4.20
2019-06-01T17:02:28.598Z,3.97
2019-06-01T17:05:00.655Z,3.80
2019-06-01T17:07:32.140Z,2.30
2019-06-01T17:10:21.715Z,2.37
2019-06-01T17:12:43.541Z,3.20
2019-06-01T17:15:14.134Z,2.10
2019-06-01T17:17:45.299Z,2.97
2019-06-01T17:20:40.427Z,2.70
2019-06-01T17:23:32.714Z,2.43
2019-06-01T17:25:46.621Z,2.27
2019-06-01T17:28:18.476Z,2.60
2019-06-01T17:30:50.066Z,4.87
2019-06-01T17:33:21.626Z,3.70
2019-06-01T17:35:53.040Z,3.27
2019-06-01T17:38:24.355Z,2.40
2019-06-01T17:40:55.736Z,3.40
2019-06-01T17:43:27.092Z,3.43
2019-06-01T17:45:58.605Z,5.00
2019-06-01T17:48:30.128Z,4.40
2019-06-01T17:51:02.571Z,4.97
2019-06-01T17:53:34.284Z,4.60
2019-06-01T17:56:06.095Z,3.90
2019-06-01T17:58:37.678Z,2.83
2019-06-01T18:01:09.949Z,3.03
2019-06-01T18:03:41.627Z,3.20
2019-06-01T18:06:14.589Z,3.03
2019-06-01T18:08:46.006Z,2.70
2019-06-01T18:11:17.621Z,2.90
2019-06-01T18:13:49.060Z,2.60
2019-06-01T18:16:20.472Z,7.40
2019-06-01T18:18:51.929Z,4.80
2019-06-01T18:21:23.371Z,4.33
2019-06-01T18:23:54.893Z,9.80
2019-06-01T18:26:26.388Z,11.87
2019-06-01T18:28:57.717Z,9.77
2019-06-01T18:31:29.204Z,12.03
2019-06-01T18:34:03.002Z,6.50
2019-06-01T18:36:34.782Z,7.63
2019-06-01T18:39:07.592Z,8.83
2019-06-01T18:41:39.015Z,7.80
2019-06-01T18:44:10.177Z,7.17
2019-06-01T18:46:41.715Z,7.10
2019-06-01T18:49:17.571Z,8.73
2019-06-01T18:51:46.441Z,15.67
2019-06-01T18:54:17.822Z,13.23
2019-06-01T18:56:49.181Z,12.93
2019-06-01T18:59:23.594Z,11.03
2019-06-01T19:01:55.022Z,8.50
2019-06-01T19:04:26.189Z,14.07
2019-06-01T19:06:57.886Z,12.63
2019-06-01T19:09:29.172Z,11.77
2019-06-01T19:12:00.580Z,8.97
2019-06-01T19:14:31.889Z,8.63
2019-06-01T19:17:03.371Z,10.77
2019-06-01T19:19:34.746Z,11.33
2019-06-01T19:22:06.389Z,12.93
2019-06-01T19:24:37.722Z,17.57
2019-06-01T19:27:09.117Z,31.80
2019-06-01T19:29:40.566Z,36.80
2019-06-01T19:32:12.898Z,39.77
2019-06-01T19:34:44.975Z,33.87
2019-06-01T19:37:17.218Z,36.80
2019-06-01T19:39:48.923Z,36.30
2019-06-01T19:42:20.129Z,35.00
2019-06-01T19:44:51.444Z,38.47
2019-06-01T19:47:22.619Z,37.07
2019-06-01T19:49:54.379Z,37.63
2019-06-01T19:52:25.738Z,36.90
2019-06-01T19:54:57.503Z,37.37
2019-06-01T19:57:29.184Z,39.90
2019-06-01T20:00:00.431Z,41.87
2019-06-01T20:02:34.285Z,42.07
2019-06-01T20:05:05.373Z,42.93
2019-06-01T20:07:36.839Z,41.27
2019-06-01T20:10:10.089Z,41.13
2019-06-01T20:12:42.885Z,39.07
2019-06-01T20:15:15.472Z,40.63
2019-06-01T20:17:47.148Z,38.13
2019-06-01T20:20:19.689Z,38.87
2019-06-01T20:22:51.186Z,37.20
2019-06-01T20:25:22.700Z,38.03
2019-06-01T20:27:54.209Z,44.13
2019-06-01T20:30:25.654Z,35.10
2019-06-01T20:32:57.194Z,80.03
2019-06-01T20:35:28.607Z,122.30
2019-06-01T20:38:00.058Z,158.23
2019-06-01T20:40:31.615Z,85.00
2019-06-01T20:43:03.091Z,71.07
2019-06-01T20:45:35.648Z,65.47
2019-06-01T20:48:10.263Z,90.90
2019-06-01T20:50:41.605Z,114.77
2019-06-01T20:53:16.947Z,196.37
2019-06-01T20:55:48.248Z,160.20
2019-06-01T20:58:21.972Z,84.40
2019-06-01T21:00:53.892Z,63.13
2019-06-01T21:03:26.276Z,65.80
2019-06-01T21:05:59.076Z,74.07
2019-06-01T21:08:30.542Z,53.07
2019-06-01T21:11:02.255Z,55.37
2019-06-01T21:13:33.553Z,49.67
2019-06-01T21:16:05.235Z,44.83
2019-06-01T21:18:37.214Z,40.73
2019-06-01T21:21:09.722Z,51.13
2019-06-01T21:23:41.052Z,35.50
2019-06-01T21:26:15.017Z,33.03
2019-06-01T21:28:46.715Z,34.90
2019-06-01T21:31:18.946Z,33.27
2019-06-01T21:33:50.610Z,31.07
2019-06-01T21:36:21.934Z,29.23
2019-06-01T21:38:53.571Z,29.70
2019-06-01T21:41:25.759Z,29.53
2019-06-01T21:43:57.863Z,26.93
2019-06-01T21:46:29.509Z,23.13
2019-06-01T21:49:01.573Z,23.73
2019-06-01T21:51:33.467Z,23.30
2019-06-01T21:54:04.760Z,22.67
2019-06-01T21:56:36.415Z,21.27
2019-06-01T21:59:07.994Z,19.03
2019-06-01T22:01:39.454Z,18.60
2019-06-01T22:04:11.354Z,18.27
2019-06-01T22:06:46.157Z,18.60
2019-06-01T22:09:17.107Z,18.87
2019-06-01T22:11:48.811Z,17.30
2019-06-01T22:14:21.276Z,17.23
2019-06-01T22:16:53.215Z,16.93
2019-06-01T22:19:25.765Z,15.83
2019-06-01T22:21:57.372Z,16.97
2019-06-01T22:24:28.638Z,16.73
2019-06-01T22:27:00.662Z,16.17
2019-06-01T22:29:31.933Z,14.73
2019-06-01T22:32:03.474Z,14.50
2019-06-01T22:34:35.242Z,15.13
2019-06-01T22:37:06.714Z,15.63
2019-06-01T22:39:38.282Z,15.03
2019-06-01T22:42:09.708Z,14.63
2019-06-01T22:44:40.977Z,16.40
2019-06-01T22:47:12.289Z,16.23
2019-06-01T22:49:43.592Z,16.50
2019-06-01T22:52:15.154Z,16.53
2019-06-01T22:54:46.561Z,15.67
2019-06-01T22:57:17.964Z,16.20
2019-06-01T22:59:49.457Z,17.53
2019-06-01T23:02:21.548Z,16.53
2019-06-01T23:04:53.245Z,16.90
2019-06-01T23:07:25.121Z,15.67
2019-06-01T23:09:56.702Z,16.13
2019-06-01T23:12:28.022Z,15.13
2019-06-01T23:14:59.488Z,14.70
2019-06-01T23:17:32.008Z,15.73
2019-06-01T23:20:07.016Z,15.20
2019-06-01T23:22:38.634Z,15.43
2019-06-01T23:25:10.364Z,16.03
2019-06-01T23:27:41.960Z,16.00
2019-06-01T23:30:13.872Z,15.80
2019-06-01T23:32:45.372Z,15.33
2019-06-01T23:35:16.870Z,15.80
2019-06-01T23:37:48.496Z,17.43
2019-06-01T23:40:20.059Z,17.00
2019-06-01T23:42:51.524Z,18.10
2019-06-01T23:45:23.078Z,16.67
2019-06-01T23:47:54.679Z,19.37
2019-06-01T23:50:27.165Z,19.50
2019-06-01T23:53:12.871Z,23.13
2019-06-01T23:55:31.976Z,20.70
2019-06-01T23:58:03.521Z,19.43
